EETU

Details ICAO EETU (TAY)
Name TARTU
Region Estonia
Timezone Europe/Tallinn (UTC+2.0)
Plans Departing 21
Arriving 16
Stats Elevation 219 ft / 67 m (AMSL)
Location 58.307462° 26.690427°
Runways 1
Magnetic Variation 8.945° E
Sunrise 2017-12-16 06:57:52 UTC / 2017-12-16 08:57:52 Local
Sunset 2017-12-16 13:22:34 UTC / 2017-12-16 15:22:34 Local
Advertisement - Login to hide

Runways

ID Width Length Bearing (true) Bearing (mag) Surface Threshold Offset Overrun Length
08 115 ft / 35 m 4,510 ft / 1,375 m 88.42° 79.47° Asphalt 0 ft / 0 m 0 ft / 0 m
26 115 ft / 35 m 4,510 ft / 1,375 m 268.44° 259.49° Asphalt 0 ft / 0 m 0 ft / 0 m

Map

Weather


0- 5 10 15 20 25 30 35+ Temperature / ° C

Clouds and Precipitation
Forecast for 2017-12-16 18:00 UTC. Updated 2 hours ago

Ground ~20,000 ft ~40,000 ft Winds

METAR

EETU 161450Z AUTO 19004KT 9000 BR OVC003/// M00/M02 Q1002

TAF

Not found

Frequencies

Tower 132.00 MHz TWR
Warning: Do not use this data for real-world aviation or navigation. No guarantee of current accuracy is given.